Charlestown, MA (02129)

6:42 PM EDT on July 26, 2016 (GMT -0400)
Charlestown | | Change Station

Elev 46 ft 42.37 °N, 71.06 °W | Updated 9 seconds ago

Scattered Clouds
Scattered Clouds
92.5 °F
Feels Like 90 °F
N
7.2
Wind Variable Wind from WSW
Gusts 9.8 mph

Today
High -- | Low -- °F
--% Chance of Precip.
Yesterday
High -- | Low -- °F
Precip. -- in
Pressure 29.78 in
Visibility 10.0 miles
Clouds Scattered Clouds 7500 ft
Heat Index 90 °F
Dew Point 55 °F
Humidity 28%
Rainfall 0.00 in
Snow Depth Not available.
5:31 AM 8:09 PM
Waning Gibbous, 50% visible
METAR KBOS 262154Z 31012KT 10SM SCT075 33/14 A2978 RMK AO2 SLP084 T03330139
Pressure 29.78 in
Visibility 10.0 miles
Clouds Scattered Clouds 7500 ft
Heat Index 90 °F
Dew Point 55 °F
Humidity 28%
Rainfall 0.00 in
Snow Depth Not available.
5:31 AM 8:09 PM
Waning Gibbous, 50% visible
METAR KBOS 262154Z 31012KT 10SM SCT075 33/14 A2978 RMK AO2 SLP084 T03330139

10-Day Weather Forecast

Almanac

Astronomy

Jul. 26, 2016 Rise Set
Actual Time
Civil Twilight
Nautical Twilight
Astronomical Twilight
Moon
Length of Visible Light
Length of Day
Tomorrow will be .
, % of the Moon is Illuminated

Today's Extremes

State Highs State Lows

Community

WunderPhotos

Upload Photos

1,927,728 photos uploaded!

WunderBlog® & News

Nearby

Air Quality

  Air Quality AQ Index Pollutant
Not available.

Snow Depth

Station Depth Elevation

Earthquake Activity

City Distance Mag. Time & Date
Minimum magnitude displayed is 2.5.

Coastal Water Temperatures

Place Temperature

Stations

Nearby Weather Stations

Station Location Temp. Windchill Dew Point Humidity Wind Precip. Elev Updated Type
                   

Watches & Warnings

There are currently no watches in effect.